Time;durP1;ratioP1;P1;durP2;ratioP2;P2;SDS_P1;SDS_P2;PMS_P1;PMS_P2;Temp;Humidity;BMP_temperature;BMP_pressure;BME280_temperature;BME280_humidity;BME280_pressure;Samples;Min_cycle;Max_cycle;Signal;HPM_P1;HPM_P2
2023/09/24 00:01:20;;;;;;;6.95;2.63;;;;;;;19.64;72.88;101257.53;6049195;23;20535;-76
2023/09/24 00:03:48;;;;;;;4.07;2.75;;;;;;;19.68;70.81;101241.88;6053566;23;20213;-78
2023/09/24 00:06:16;;;;;;;8.07;2.80;;;;;;;19.50;69.84;101234.06;6059401;23;20041;-77
2023/09/24 00:08:44;;;;;;;5.53;3.30;;;;;;;19.49;70.03;101249.41;6036227;23;20014;-77
2023/09/24 00:11:11;;;;;;;3.60;2.50;;;;;;;19.39;70.29;101251.47;6026464;23;20161;-78
2023/09/24 00:13:46;;;;;;;4.65;2.70;;;;;;;19.19;70.00;101248.41;5988761;23;20326;-79
2023/09/24 00:16:23;;;;;;;6.90;3.13;;;;;;;19.07;70.13;101268.66;5963826;23;20464;-80
2023/09/24 00:18:57;;;;;;;5.43;2.80;;;;;;;18.82;70.15;101263.38;5957439;23;20507;-79
2023/09/24 00:21:24;;;;;;;8.93;3.08;;;;;;;18.50;71.00;101238.25;6040657;23;20023;-75
2023/09/24 00:23:56;;;;;;;5.15;2.83;;;;;;;18.55;71.36;101264.63;6024676;23;20098;-78
2023/09/24 00:26:24;;;;;;;8.32;2.42;;;;;;;18.44;72.11;101262.31;6056826;23;20371;-78
2023/09/24 00:28:56;;;;;;;5.10;2.85;;;;;;;18.30;71.58;101228.91;6019532;23;20550;-77
2023/09/24 00:31:25;;;;;;;5.55;2.65;;;;;;;18.44;71.46;101257.75;6041725;23;20023;-78
2023/09/24 00:33:54;;;;;;;5.90;2.88;;;;;;;18.33;71.64;101242.00;6037527;23;20339;-78
2023/09/24 00:36:21;;;;;;;5.03;2.63;;;;;;;18.55;72.83;101249.34;6020628;23;20409;-79
2023/09/24 00:38:51;;;;;;;5.97;2.47;;;;;;;18.76;72.76;101256.88;6018299;23;20106;-78
2023/09/24 00:41:18;;;;;;;6.28;2.78;;;;;;;18.66;71.36;101234.66;6002653;23;20318;-78
2023/09/24 00:43:51;;;;;;;6.32;2.70;;;;;;;18.96;72.33;101254.59;5986891;23;20020;-78
2023/09/24 00:46:24;;;;;;;6.25;2.38;;;;;;;19.18;72.54;101252.13;5999126;23;20023;-78
2023/09/24 00:48:58;;;;;;;3.50;2.03;;;;;;;19.71;72.45;101266.59;6043374;23;20046;-77
2023/09/24 00:51:27;;;;;;;5.75;2.58;;;;;;;19.98;69.90;101258.97;6028154;23;20200;-78
2023/09/24 00:53:55;;;;;;;5.85;3.03;;;;;;;19.80;67.87;101257.41;6029582;23;20065;-77
2023/09/24 00:56:23;;;;;;;5.05;2.72;;;;;;;19.58;68.58;101261.75;6022493;23;20027;-79
2023/09/24 00:58:51;;;;;;;7.25;2.42;;;;;;;19.39;69.25;101263.09;6018606;23;20034;-78
2023/09/24 01:01:24;;;;;;;3.63;2.08;;;;;;;19.63;71.01;101251.28;6043457;23;20488;-77
2023/09/24 01:03:52;;;;;;;5.00;2.60;;;;;;;20.00;68.14;101289.25;6043583;23;20046;-78
2023/09/24 01:06:24;;;;;;;7.15;2.83;;;;;;;19.69;68.15;101268.63;6020418;23;20406;-78
2023/09/24 01:08:51;;;;;;;4.27;2.03;;;;;;;19.88;69.96;101277.22;6063323;23;20474;-76
2023/09/24 01:11:18;;;;;;;6.72;2.58;;;;;;;19.90;66.95;101278.72;6052347;23;20624;-77
2023/09/24 01:13:49;;;;;;;4.70;2.30;;;;;;;19.68;67.38;101282.28;6060904;23;20530;-78
2023/09/24 01:16:16;;;;;;;5.30;2.45;;;;;;;19.46;67.95;101278.53;6058030;23;20107;-76
2023/09/24 01:18:44;;;;;;;6.47;2.20;;;;;;;19.12;68.41;101255.50;6053609;23;20404;-76
2023/09/24 01:21:43;;;;;;;3.90;2.40;;;;;;;19.04;69.42;101280.59;6004158;23;20711;-76
2023/09/24 01:24:10;;;;;;;6.53;2.35;;;;;;;18.92;69.43;101271.25;6067456;23;20546;-78
2023/09/24 01:26:40;;;;;;;4.38;2.53;;;;;;;18.93;69.41;101271.09;6055423;23;20023;-77
2023/09/24 01:29:09;;;;;;;3.92;2.55;;;;;;;18.84;69.65;101258.69;6010330;23;20579;-77
2023/09/24 01:31:38;;;;;;;4.30;2.40;;;;;;;18.88;70.31;101259.97;6035300;23;20474;-78
2023/09/24 01:34:05;;;;;;;3.70;2.38;;;;;;;18.99;71.14;101264.16;6041628;23;20534;-78
2023/09/24 01:36:37;;;;;;;5.85;2.10;;;;;;;19.23;72.30;101244.34;6051021;23;20094;-78
2023/09/24 01:39:17;;;;;;;4.28;2.13;;;;;;;19.57;70.96;101253.88;5944974;23;20540;-79
2023/09/24 01:41:51;;;;;;;3.63;2.33;;;;;;;19.79;70.89;101250.38;5994965;23;20083;-77
2023/09/24 01:44:21;;;;;;;3.88;2.20;;;;;;;20.05;68.75;101278.78;6042642;23;20041;-77
2023/09/24 01:46:57;;;;;;;4.55;2.55;;;;;;;19.92;69.46;101263.22;6052140;23;20027;-78
2023/09/24 01:49:27;;;;;;;6.38;2.47;;;;;;;19.96;68.56;101247.53;6040243;23;20071;-76
2023/09/24 01:51:54;;;;;;;6.35;2.78;;;;;;;20.05;68.27;101294.97;6052249;23;20133;-79
2023/09/24 01:54:21;;;;;;;4.00;2.40;;;;;;;19.70;68.85;101264.91;6054919;23;20387;-77
2023/09/24 01:56:50;;;;;;;5.65;2.85;;;;;;;19.55;69.39;101267.50;6049072;23;20535;-78
2023/09/24 01:59:17;;;;;;;7.47;3.00;;;;;;;19.46;69.70;101278.53;6051938;23;20034;-76
2023/09/24 02:01:44;;;;;;;7.90;2.55;;;;;;;19.34;70.54;101268.16;6038301;23;20495;-76
2023/09/24 02:04:13;;;;;;;7.25;2.83;;;;;;;19.09;70.84;101239.72;6066957;23;20023;-79
2023/09/24 02:06:41;;;;;;;4.85;2.92;;;;;;;19.00;71.47;101238.91;6040186;23;20032;-80
2023/09/24 02:09:08;;;;;;;6.78;3.05;;;;;;;19.08;72.07;101254.16;6076568;23;20073;-78
2023/09/24 02:11:35;;;;;;;7.82;2.78;;;;;;;19.11;71.97;101276.19;6045560;23;20044;-77
2023/09/24 02:14:07;;;;;;;6.47;2.88;;;;;;;19.08;71.75;101281.06;6090287;23;20054;-78
2023/09/24 02:16:38;;;;;;;8.20;2.80;;;;;;;19.05;71.70;101281.44;6031580;23;20030;-80
2023/09/24 02:19:06;;;;;;;7.47;2.92;;;;;;;19.05;72.22;101297.59;6040740;23;20053;-78
2023/09/24 02:21:33;;;;;;;5.53;2.67;;;;;;;19.29;72.86;101294.75;6061023;23;20477;-77
2023/09/24 02:23:59;;;;;;;4.35;3.05;;;;;;;19.41;71.80;101298.72;6033285;23;20018;-80
2023/09/24 02:26:26;;;;;;;5.03;3.13;;;;;;;19.28;71.32;101257.28;6020489;23;20022;-78
2023/09/24 02:28:54;;;;;;;8.98;3.35;;;;;;;19.48;70.26;101298.88;6032916;23;20081;-78
2023/09/24 02:31:21;;;;;;;10.35;3.28;;;;;;;19.42;69.25;101304.97;6030915;23;20359;-77
2023/09/24 02:33:53;;;;;;;4.93;2.50;;;;;;;19.20;68.50;101282.41;6007613;23;20359;-80
2023/09/24 02:36:23;;;;;;;5.22;2.63;;;;;;;19.19;68.63;101283.38;5990444;23;20018;-77
2023/09/24 02:38:50;;;;;;;4.00;2.13;;;;;;;19.17;68.80;101297.00;6020115;23;20022;-77
2023/09/24 02:41:17;;;;;;;4.15;2.55;;;;;;;19.25;68.78;101296.16;6025593;23;20049;-77
2023/09/24 02:43:45;;;;;;;4.70;2.50;;;;;;;19.33;68.20;101314.94;6080727;23;20348;-77
2023/09/24 02:46:12;;;;;;;6.72;2.70;;;;;;;19.49;68.50;101332.00;6041960;23;20026;-78
2023/09/24 02:48:39;;;;;;;7.30;2.78;;;;;;;19.56;68.40;101332.97;5995537;23;20022;-79
2023/09/24 02:51:09;;;;;;;3.20;2.20;;;;;;;19.45;67.41;101328.03;6033676;23;20398;-78
2023/09/24 02:53:36;;;;;;;6.28;3.17;;;;;;;19.53;68.28;101352.19;6057341;23;20022;-78
2023/09/24 02:56:04;;;;;;;5.55;2.45;;;;;;;19.62;68.37;101353.84;6012182;23;20105;-77
2023/09/24 02:58:34;;;;;;;4.55;2.50;;;;;;;19.75;68.77;101359.50;6053684;23;20049;-77
2023/09/24 03:01:02;;;;;;;4.25;2.28;;;;;;;19.61;68.97;101366.47;6030067;23;20022;-79
2023/09/24 03:03:29;;;;;;;8.02;2.47;;;;;;;19.87;69.48;101391.41;6035068;23;20042;-79
2023/09/24 03:05:56;;;;;;;4.22;2.38;;;;;;;20.01;68.27;101401.44;6054851;23;20119;-78
2023/09/24 03:08:23;;;;;;;5.50;2.30;;;;;;;19.88;67.58;101380.47;6024764;23;20058;-78
2023/09/24 03:10:51;;;;;;;3.40;2.15;;;;;;;19.68;68.00;101384.63;6053765;23;20026;-77
2023/09/24 03:13:22;;;;;;;4.18;2.65;;;;;;;19.42;68.08;101358.84;6056130;23;20057;-78
2023/09/24 03:15:49;;;;;;;5.00;3.22;;;;;;;19.13;69.22;101354.91;6026496;23;20050;-78
2023/09/24 03:18:15;;;;;;;7.20;2.22;;;;;;;18.93;70.14;101349.09;6023113;23;20019;-77
2023/09/24 03:20:44;;;;;;;7.57;2.92;;;;;;;18.52;70.03;101311.53;6052155;23;20399;-76
2023/09/24 03:23:12;;;;;;;7.90;2.75;;;;;;;18.63;70.25;101339.06;6040529;23;20477;-79
2023/09/24 03:25:40;;;;;;;8.63;3.88;;;;;;;18.38;71.52;101314.91;6058271;23;20251;-77
2023/09/24 03:28:12;;;;;;;6.65;3.88;;;;;;;18.22;71.37;101296.09;6033678;23;20022;-79
2023/09/24 03:30:38;;;;;;;7.68;4.60;;;;;;;18.39;72.03;101327.31;6026176;23;20723;-78
2023/09/24 03:33:05;;;;;;;10.52;5.97;;;;;;;18.28;71.24;101315.09;6010326;23;20292;-78
2023/09/24 03:35:36;;;;;;;12.02;6.35;;;;;;;18.47;71.82;101353.34;6045469;23;20023;-79
2023/09/24 03:38:03;;;;;;;12.88;8.65;;;;;;;18.46;72.15;101339.09;6041042;23;20025;-77
2023/09/24 03:40:29;;;;;;;7.35;3.88;;;;;;;18.58;72.13;101340.41;6048345;23;20101;-80
2023/09/24 03:42:56;;;;;;;10.60;6.70;;;;;;;18.67;71.66;101332.34;6025361;23;20019;-78
2023/09/24 03:45:24;;;;;;;10.65;8.52;;;;;;;18.76;71.38;101366.28;6052532;23;20027;-76
2023/09/24 03:47:53;;;;;;;11.25;6.75;;;;;;;18.80;70.73;101373.00;6039673;23;20019;-78
2023/09/24 03:50:20;;;;;;;11.95;7.32;;;;;;;18.70;69.88;101369.63;6026065;23;20052;-77
2023/09/24 03:52:49;;;;;;;7.63;4.70;;;;;;;18.56;71.50;101377.38;6052401;23;20026;-77
2023/09/24 03:55:18;;;;;;;11.57;5.95;;;;;;;18.19;71.60;101320.63;6055843;23;20443;-76
2023/09/24 03:57:49;;;;;;;7.75;5.40;;;;;;;18.63;71.92;101388.28;6024584;23;20140;-81
2023/09/24 04:00:21;;;;;;;7.88;4.88;;;;;;;18.58;71.17;101378.03;6014982;23;20351;-79
2023/09/24 04:02:49;;;;;;;12.10;4.72;;;;;;;18.81;70.80;101404.25;6051525;23;20034;-77
2023/09/24 04:05:21;;;;;;;7.00;4.55;;;;;;;18.72;69.72;101406.09;6063136;23;20329;-80
2023/09/24 04:07:57;;;;;;;13.75;5.80;;;;;;;18.39;70.19;101394.53;6038184;23;20038;-80
2023/09/24 04:10:27;;;;;;;;;;;;;;;18.36;70.93;101411.00;6048106;23;20027;-78
2023/09/24 04:12:57;;;;;;;7.45;5.20;;;;;;;18.32;71.37;101396.22;6040130;23;19924;-79
2023/09/24 04:15:29;;;;;;;9.35;5.05;;;;;;;18.38;70.48;101400.94;6023202;23;20086;-80
2023/09/24 04:17:59;;;;;;;7.03;4.35;;;;;;;18.17;71.73;101379.09;6022080;23;20076;-79
2023/09/24 04:20:29;;;;;;;9.20;5.57;;;;;;;18.35;71.24;101403.97;6051304;23;20015;-78
2023/09/24 04:23:01;;;;;;;8.40;4.63;;;;;;;18.09;71.82;101361.13;6062079;23;20031;-79
2023/09/24 04:25:31;;;;;;;6.22;4.00;;;;;;;18.39;70.94;101410.66;6050509;23;20027;-79
2023/09/24 04:27:59;;;;;;;7.13;4.60;;;;;;;18.33;70.70;101400.59;6040848;23;20170;-80
2023/09/24 04:30:26;;;;;;;8.27;4.25;;;;;;;18.27;70.21;101394.03;6026585;23;20037;-78
2023/09/24 04:33:02;;;;;;;9.90;4.47;;;;;;;18.27;70.58;101401.25;6049815;23;20378;-81
2023/09/24 04:35:31;;;;;;;5.07;3.83;;;;;;;18.06;69.38;101356.06;6056457;23;20022;-79
2023/09/24 04:38:01;;;;;;;5.85;4.35;;;;;;;18.11;69.82;101376.06;6024109;23;20444;-78
2023/09/24 04:40:28;;;;;;;9.27;3.72;;;;;;;18.35;69.88;101422.78;6045122;23;20066;-80
2023/09/24 04:42:55;;;;;;;7.18;3.50;;;;;;;18.29;70.19;101415.38;6052478;23;20546;-78
2023/09/24 04:45:22;;;;;;;7.45;4.03;;;;;;;18.15;70.94;101392.66;6058924;23;20022;-77
2023/09/24 04:47:53;;;;;;;6.18;3.88;;;;;;;18.38;71.19;101414.38;6049076;23;20320;-80
2023/09/24 04:50:25;;;;;;;5.28;3.65;;;;;;;18.45;68.76;101410.00;6054893;23;20033;-78
2023/09/24 04:52:54;;;;;;;9.20;4.30;;;;;;;18.54;69.04;101426.94;6059060;23;20113;-78
2023/09/24 04:55:24;;;;;;;6.90;3.67;;;;;;;18.33;68.48;101392.53;6015417;23;20498;-78
2023/09/24 04:57:56;;;;;;;8.48;3.72;;;;;;;18.47;67.47;101429.50;6039471;23;20023;-79
2023/09/24 05:00:23;;;;;;;;;;;;;;;18.40;68.64;101451.81;6044315;23;20435;-76
2023/09/24 05:02:49;;;;;;;8.15;4.00;;;;;;;18.31;68.77;101434.84;6024931;23;20000;-78
2023/09/24 05:05:19;;;;;;;5.38;3.75;;;;;;;18.38;68.28;101446.63;6037387;23;20029;-78
2023/09/24 05:07:53;;;;;;;5.50;2.78;;;;;;;18.48;70.15;101452.66;6011507;23;20072;-79
2023/09/24 05:10:20;;;;;;;5.53;3.95;;;;;;;18.51;69.33;101425.44;6022019;23;20081;-79
2023/09/24 05:12:47;;;;;;;6.85;3.92;;;;;;;18.82;68.09;101470.50;6037704;23;20023;-78
2023/09/24 05:15:14;;;;;;;9.63;4.70;;;;;;;18.85;67.48;101475.53;6062174;23;20031;-78
2023/09/24 05:17:43;;;;;;;7.07;4.10;;;;;;;18.71;66.64;101473.50;6039385;23;20514;-78
2023/09/24 05:20:11;;;;;;;7.35;4.55;;;;;;;18.61;65.36;101479.06;6044754;23;20022;-79
2023/09/24 05:22:39;;;;;;;5.63;4.15;;;;;;;18.55;66.30;101485.94;6053326;23;20134;-79
2023/09/24 05:25:06;;;;;;;8.73;4.50;;;;;;;18.28;66.26;101451.31;6059734;23;20355;-79
2023/09/24 05:27:34;;;;;;;8.45;4.00;;;;;;;18.39;65.98;101472.50;6055798;23;20023;-81
2023/09/24 05:30:07;;;;;;;7.22;3.65;;;;;;;18.40;66.96;101482.25;6058419;23;20015;-80
2023/09/24 05:32:37;;;;;;;5.72;3.85;;;;;;;18.34;66.12;101466.78;6056623;23;20050;-78
2023/09/24 05:35:05;;;;;;;9.02;4.07;;;;;;;18.48;65.95;101484.94;6044232;23;20026;-78
2023/09/24 05:37:34;;;;;;;7.43;3.88;;;;;;;18.19;64.50;101430.81;6028873;23;20375;-79
2023/09/24 05:40:01;;;;;;;4.25;3.15;;;;;;;18.31;65.48;101451.00;6062649;23;20018;-78
2023/09/24 05:42:28;;;;;;;5.03;3.28;;;;;;;18.65;64.12;101479.56;6043616;23;20060;-77
2023/09/24 05:44:55;;;;;;;8.30;3.30;;;;;;;18.62;65.46;101478.06;6058194;23;20079;-78
2023/09/24 05:47:26;;;;;;;7.65;2.80;;;;;;;18.79;64.87;101487.00;6045839;23;20023;-81
2023/09/24 05:49:54;;;;;;;;;;;;;;;18.86;66.77;101488.00;6058862;23;20216;-79
2023/09/24 05:52:27;;;;;;;3.78;2.97;;;;;;;19.02;67.40;101483.59;6052611;23;19940;-78
2023/09/24 05:54:53;;;;;;;6.03;3.15;;;;;;;19.05;62.10;101485.94;6060898;23;20022;-80
2023/09/24 05:57:22;;;;;;;4.32;3.13;;;;;;;19.03;62.95;101490.66;6060916;23;20027;-78
2023/09/24 05:59:51;;;;;;;6.28;3.30;;;;;;;19.08;63.81;101488.28;6075895;23;20294;-78
2023/09/24 06:02:24;;;;;;;3.83;2.50;;;;;;;19.09;62.68;101484.59;6045957;23;20035;-80
2023/09/24 06:04:53;;;;;;;4.72;3.17;;;;;;;18.96;62.48;101469.84;6011179;23;20062;-79
2023/09/24 06:07:24;;;;;;;;;;;;;;;19.07;63.45;101500.91;6028039;23;20019;-78
2023/09/24 06:09:53;;;;;;;7.55;2.83;;;;;;;19.09;63.32;101492.69;5999678;23;19921;-80
2023/09/24 06:12:21;;;;;;;7.95;3.33;;;;;;;19.09;63.26;101500.75;6006724;23;20329;-79
2023/09/24 06:14:50;;;;;;;5.38;3.47;;;;;;;19.03;62.83;101510.34;6010115;23;20019;-78
2023/09/24 06:17:17;;;;;;;6.97;3.58;;;;;;;19.10;62.78;101511.34;5995155;23;20055;-78
2023/09/24 06:19:47;;;;;;;4.53;3.05;;;;;;;19.13;61.66;101515.56;6000252;23;20146;-80
2023/09/24 06:22:13;;;;;;;4.47;2.72;;;;;;;19.10;62.25;101516.75;6003187;23;20023;-78
2023/09/24 06:24:40;;;;;;;7.85;3.67;;;;;;;18.98;61.80;101505.47;6009249;23;20054;-79
2023/09/24 06:27:07;;;;;;;6.22;3.78;;;;;;;19.04;61.35;101516.56;6006445;23;20041;-78
2023/09/24 06:29:36;;;;;;;4.45;3.72;;;;;;;18.96;60.58;101520.13;6004103;23;20030;-78
2023/09/24 06:32:03;;;;;;;6.03;3.50;;;;;;;18.92;60.94;101516.91;6002171;23;20023;-78
2023/09/24 06:34:35;;;;;;;4.40;2.90;;;;;;;18.87;61.43;101521.13;6005467;23;20164;-78
2023/09/24 06:37:02;;;;;;;;;;;;;;;18.94;61.18;101524.81;6005900;23;20410;-77
2023/09/24 06:39:31;;;;;;;9.77;4.15;;;;;;;18.91;61.80;101534.06;5994790;23;20119;-79
2023/09/24 06:41:59;;;;;;;10.18;3.97;;;;;;;19.02;61.56;101534.72;5997442;23;20081;-80
2023/09/24 06:44:26;;;;;;;7.03;3.85;;;;;;;19.08;61.41;101547.50;5999964;23;20027;-78
2023/09/24 06:46:55;;;;;;;6.25;3.92;;;;;;;19.12;60.21;101538.91;5998911;23;20027;-77
2023/09/24 06:49:26;;;;;;;5.45;3.85;;;;;;;19.14;60.76;101554.91;5985959;23;20023;-79
2023/09/24 06:51:53;;;;;;;6.30;3.65;;;;;;;19.23;60.99;101558.44;6001337;23;20031;-80
2023/09/24 06:54:20;;;;;;;7.00;3.53;;;;;;;19.31;62.02;101561.94;5994407;23;20031;-81
2023/09/24 06:56:47;;;;;;;6.28;3.65;;;;;;;19.37;60.95;101566.66;5990076;23;20019;-77
2023/09/24 06:59:19;;;;;;;7.38;3.85;;;;;;;19.39;58.56;101580.81;5992891;23;20289;-78
2023/09/24 07:01:56;;;;;;;9.55;3.40;;;;;;;19.15;58.23;101565.50;5995298;23;20041;-80
2023/09/24 07:04:23;;;;;;;5.20;3.03;;;;;;;19.16;58.95;101579.81;6054462;23;20037;-80
2023/09/24 07:06:51;;;;;;;6.70;3.17;;;;;;;19.15;59.27;101594.25;6073747;23;20391;-79
2023/09/24 07:09:18;;;;;;;3.30;2.47;;;;;;;19.16;60.82;101601.34;6059662;23;20027;-79
2023/09/24 07:11:45;;;;;;;8.25;3.15;;;;;;;19.17;59.21;101592.25;6032975;23;20019;-79
2023/09/24 07:14:15;;;;;;;6.90;2.85;;;;;;;19.09;60.53;101581.50;6024901;23;20029;-79
2023/09/24 07:16:42;;;;;;;6.50;3.55;;;;;;;19.09;59.63;101586.88;6031076;23;20018;-79
2023/09/24 07:19:11;;;;;;;4.72;3.53;;;;;;;19.19;59.60;101604.53;6032082;23;20022;-79
2023/09/24 07:21:37;;;;;;;4.35;2.38;;;;;;;19.29;62.03;101614.28;6054525;23;20280;-80
2023/09/24 07:24:06;;;;;;;4.70;3.17;;;;;;;19.43;59.75;101624.38;6040562;23;20026;-80
2023/09/24 07:26:37;;;;;;;5.53;3.25;;;;;;;19.40;59.76;101611.25;6058452;23;20061;-80
2023/09/24 07:29:05;;;;;;;4.55;3.30;;;;;;;19.40;58.71;101606.69;6016012;23;20355;-80
2023/09/24 07:31:34;;;;;;;5.68;3.42;;;;;;;19.51;58.11;101623.50;6025988;23;20089;-79
2023/09/24 07:34:05;;;;;;;9.23;3.80;;;;;;;19.53;60.11;101627.72;6022540;23;20609;-80
2023/09/24 07:36:32;;;;;;;6.30;3.20;;;;;;;19.59;59.47;101634.28;6030395;23;20132;-79
2023/09/24 07:39:10;;;;;;;8.40;3.40;;;;;;;19.36;60.32;101597.28;6031789;23;20154;-80
2023/09/24 07:41:37;;;;;;;5.63;3.42;;;;;;;19.43;60.30;101584.81;6050069;23;20062;-79
2023/09/24 07:44:04;;;;;;;5.32;3.25;;;;;;;19.81;59.30;101632.78;6043622;23;20022;-80
2023/09/24 07:46:35;;;;;;;3.88;2.42;;;;;;;19.88;61.53;101630.19;6052527;23;20029;-80
2023/09/24 07:49:05;;;;;;;5.23;2.00;;;;;;;20.12;62.39;101640.06;6052452;23;20026;-80
2023/09/24 07:51:36;;;;;;;5.75;3.05;;;;;;;20.30;62.12;101637.16;6023620;23;20270;-80
2023/09/24 07:54:03;;;;;;;7.20;4.28;;;;;;;20.42;60.49;101624.97;6019563;23;20105;-80
2023/09/24 07:56:30;;;;;;;9.65;3.53;;;;;;;20.40;58.67;101633.22;6049871;23;20483;-79
2023/09/24 07:58:57;;;;;;;5.38;3.70;;;;;;;20.30;57.93;101624.50;6090389;23;20042;-77
2023/09/24 08:01:24;;;;;;;5.45;2.53;;;;;;;20.35;60.29;101623.97;6031855;23;20025;-80
2023/09/24 08:03:52;;;;;;;6.32;4.03;;;;;;;20.35;58.20;101629.38;6055486;23;20224;-80
2023/09/24 08:06:20;;;;;;;6.68;3.50;;;;;;;20.43;57.77;101629.31;6062275;23;20447;-79
2023/09/24 08:08:51;;;;;;;7.30;3.65;;;;;;;20.19;57.02;101601.44;6050843;23;20089;-79
2023/09/24 08:11:42;;;;;;;6.38;3.45;;;;;;;20.40;57.10;101621.59;6021008;23;20019;-78
2023/09/24 08:14:12;;;;;;;6.10;3.28;;;;;;;20.38;54.88;101635.25;6073390;23;20377;-79
2023/09/24 08:16:39;;;;;;;6.07;3.13;;;;;;;20.18;57.96;101624.03;6069804;23;20022;-80
2023/09/24 08:19:12;;;;;;;10.32;3.60;;;;;;;20.34;57.87;101643.84;6028294;23;20034;-78
2023/09/24 08:21:42;;;;;;;6.20;3.20;;;;;;;20.14;57.63;101608.38;6032459;23;20023;-79
2023/09/24 08:24:09;;;;;;;3.87;2.67;;;;;;;20.36;58.00;101631.88;6030222;23;20019;-79
2023/09/24 08:26:36;;;;;;;7.00;4.70;;;;;;;20.38;56.33;101646.03;6035125;23;20097;-78
2023/09/24 08:29:08;;;;;;;5.20;2.63;;;;;;;20.22;59.17;101630.78;6027700;23;20076;-79
2023/09/24 08:31:35;;;;;;;9.80;4.55;;;;;;;19.61;57.42;101524.50;6063419;23;20025;-76
2023/09/24 08:34:03;;;;;;;6.70;3.95;;;;;;;20.35;58.05;101632.06;6026381;23;20114;-78
2023/09/24 08:36:31;;;;;;;7.50;4.20;;;;;;;20.46;57.78;101647.84;6071586;23;20082;-78
2023/09/24 08:38:58;;;;;;;7.68;4.22;;;;;;;20.31;57.96;101628.03;6054672;23;20022;-78
2023/09/24 08:41:32;;;;;;;12.82;4.97;;;;;;;20.46;57.62;101647.84;6093733;23;20526;-79
2023/09/24 08:44:05;;;;;;;11.70;5.47;;;;;;;20.40;57.23;101637.78;6055847;23;20085;-79
2023/09/24 08:46:35;;;;;;;9.90;5.47;;;;;;;20.43;58.44;101648.19;6011539;23;20119;-79
2023/09/24 08:49:05;;;;;;;10.18;4.05;;;;;;;20.40;59.42;101622.41;6012674;23;20259;-81
2023/09/24 08:51:33;;;;;;;8.82;4.90;;;;;;;20.67;56.59;101629.22;5999098;23;20066;-80
2023/09/24 08:54:01;;;;;;;6.85;4.55;;;;;;;20.61;57.76;101624.53;6061489;23;20022;-79
2023/09/24 08:56:28;;;;;;;11.48;6.22;;;;;;;20.55;57.16;101613.59;6035034;23;20014;-79
2023/09/24 08:58:55;;;;;;;9.25;4.38;;;;;;;20.70;57.89;101639.66;6061932;23;20503;-79
2023/09/24 09:01:23;;;;;;;13.02;6.10;;;;;;;20.77;57.94;101638.94;6029706;23;20419;-79
2023/09/24 09:03:50;;;;;;;7.07;4.63;;;;;;;20.54;56.76;101577.69;6019471;23;20463;-79
2023/09/24 09:06:36;;;;;;;8.38;4.65;;;;;;;20.96;56.45;101633.06;6011410;23;20028;-78
2023/09/24 09:09:03;;;;;;;6.35;3.85;;;;;;;21.06;56.87;101640.94;6044794;23;20025;-78
2023/09/24 09:11:41;;;;;;;6.38;3.95;;;;;;;21.12;57.75;101630.25;6044764;23;20027;-77
2023/09/24 09:14:09;;;;;;;6.22;4.22;;;;;;;21.30;57.23;101642.59;6009607;23;20073;-79
2023/09/24 09:16:57;;;;;;;6.10;3.30;;;;;;;21.37;57.20;101635.44;6018430;23;20067;-79
2023/09/24 09:19:44;;;;;;;7.30;4.90;;;;;;;21.23;56.50;101585.78;6043045;23;20026;-79
2023/09/24 09:22:22;;;;;;;8.75;4.32;;;;;;;21.64;55.59;101630.50;6042611;23;20027;-79
2023/09/24 09:25:06;;;;;;;16.17;5.47;;;;;;;21.71;55.87;101636.84;6055938;23;20054;-78
2023/09/24 09:27:39;;;;;;;9.00;4.45;;;;;;;21.81;56.13;101637.41;6083041;23;20019;-78
2023/09/24 09:30:17;;;;;;;9.43;5.38;;;;;;;22.03;56.17;101648.31;6051556;23;20051;-79
2023/09/24 09:32:46;;;;;;;8.90;3.45;;;;;;;21.82;55.95;101606.66;6079528;23;20070;-79
2023/09/24 09:35:15;;;;;;;5.35;3.53;;;;;;;22.16;57.41;101645.78;6083668;23;20078;-80
2023/09/24 09:37:44;;;;;;;10.43;5.30;;;;;;;21.73;56.85;101532.13;6047467;23;20545;-79
2023/09/24 09:40:14;;;;;;;7.45;4.78;;;;;;;22.22;56.46;101587.47;6072125;23;20023;-81
2023/09/24 09:42:42;;;;;;;7.85;4.93;;;;;;;22.73;55.85;101645.06;6061888;23;20358;-79
2023/09/24 09:45:10;;;;;;;3.90;2.78;;;;;;;22.95;54.16;101635.09;6052920;23;20037;-80
2023/09/24 09:48:07;;;;;;;8.20;5.28;;;;;;;23.04;52.65;101633.97;6043123;23;20027;-79
2023/09/24 09:50:43;;;;;;;4.57;3.10;;;;;;;22.87;54.79;101607.31;6014902;23;20027;-80
2023/09/24 09:53:16;;;;;;;7.55;4.03;;;;;;;23.05;53.93;101618.56;6043713;23;20023;-79
2023/09/24 09:55:46;;;;;;;7.55;5.38;;;;;;;23.25;52.64;101629.56;6022343;23;20103;-79
2023/09/24 09:58:14;;;;;;;9.60;3.88;;;;;;;23.19;51.24;101597.84;6042221;23;20019;-77
2023/09/24 10:00:52;;;;;;;8.15;4.75;;;;;;;23.37;51.99;101616.31;6052484;23;20055;-79
2023/09/24 10:03:21;;;;;;;9.68;4.85;;;;;;;23.47;52.45;101616.81;6033022;23;20448;-79
2023/09/24 10:05:57;;;;;;;7.22;4.00;;;;;;;23.60;51.77;101626.94;6023840;23;20027;-78
2023/09/24 10:08:35;;;;;;;5.45;2.63;;;;;;;23.70;49.08;101627.41;5992276;23;20027;-81
2023/09/24 10:11:05;;;;;;;11.25;2.40;;;;;;;23.77;49.43;101616.66;5997874;23;20114;-79
2023/09/24 10:13:46;;;;;;;2.75;1.98;;;;;;;23.89;47.07;101625.91;6037924;23;20023;-79
2023/09/24 10:16:26;;;;;;;2.63;1.95;;;;;;;23.97;46.71;101620.31;6051423;23;20482;-79
2023/09/24 10:18:56;;;;;;;7.28;1.98;;;;;;;24.15;48.46;101627.88;6056589;23;20159;-79
2023/09/24 10:21:37;;;;;;;5.13;2.75;;;;;;;24.22;46.62;101636.06;6042588;23;20020;-80
2023/09/24 10:24:11;;;;;;;5.38;2.60;;;;;;;24.16;47.32;101615.19;6000068;23;20095;-81
2023/09/24 10:26:48;;;;;;;6.00;2.75;;;;;;;24.33;48.12;101630.06;6011490;23;20019;-79
2023/09/24 10:29:40;;;;;;;3.63;1.85;;;;;;;24.58;50.88;101630.41;6003851;23;20352;-80
2023/09/24 10:32:10;;;;;;;4.35;1.67;;;;;;;24.57;46.61;101631.44;5993830;23;20403;-79
2023/09/24 10:34:55;;;;;;;8.52;1.55;;;;;;;24.63;45.97;101624.34;5987591;23;20689;-80
2023/09/24 10:37:34;;;;;;;2.88;1.80;;;;;;;24.37;45.82;101571.66;5998271;23;20055;-79
2023/09/24 10:40:12;;;;;;;1.88;1.25;;;;;;;24.67;46.96;101576.75;5999772;23;20776;-80
2023/09/24 10:42:45;;;;;;;2.08;1.30;;;;;;;24.98;44.91;101626.91;6058364;23;20019;-81
2023/09/24 10:45:29;;;;;;;2.97;1.42;;;;;;;25.19;43.17;101625.94;6038951;23;20087;-80
2023/09/24 10:48:03;;;;;;;2.25;1.20;;;;;;;25.23;44.26;101619.03;6011779;23;20069;-80
2023/09/24 10:50:30;;;;;;;2.50;1.17;;;;;;;25.29;45.01;101605.47;6001034;23;20448;-81
2023/09/24 10:53:03;;;;;;;6.05;1.38;;;;;;;25.45;43.17;101608.78;5991205;23;20023;-80
2023/09/24 10:55:30;;;;;;;4.03;1.38;;;;;;;25.77;46.04;101628.81;6010268;23;20305;-82
2023/09/24 10:58:02;;;;;;;1.67;1.10;;;;;;;25.76;43.82;101625.25;6055057;23;20357;-80
2023/09/24 11:00:35;;;;;;;4.30;1.52;;;;;;;25.22;43.71;101546.72;6010792;23;20027;-79
2023/09/24 11:03:10;;;;;;;2.13;1.40;;;;;;;25.80;45.17;101623.78;6031425;23;20060;-79
2023/09/24 11:05:40;;;;;;;3.78;1.40;;;;;;;25.95;44.05;101637.19;6037651;23;20026;-81
2023/09/24 11:08:18;;;;;;;2.10;1.23;;;;;;;25.91;42.36;101629.66;6047914;23;20041;-80
2023/09/24 11:10:49;;;;;;;5.63;1.40;;;;;;;25.94;42.93;101616.44;6057347;23;20355;-80
2023/09/24 11:13:16;;;;;;;2.70;1.40;;;;;;;26.37;44.66;101628.66;6047016;23;20026;-80
2023/09/24 11:15:47;;;;;;;3.13;1.17;;;;;;;26.39;45.20;101648.31;6023778;23;20106;-82
2023/09/24 11:18:15;;;;;;;2.35;1.40;;;;;;;26.16;44.20;101619.72;6038016;23;20066;-81
2023/09/24 11:20:53;;;;;;;4.90;2.20;;;;;;;25.90;41.40;101606.19;6061855;23;20149;-80
2023/09/24 11:23:20;;;;;;;2.70;1.65;;;;;;;25.97;44.28;101628.78;6061306;23;20330;-80
2023/09/24 11:25:48;;;;;;;1.73;1.30;;;;;;;26.06;45.58;101622.06;6033128;23;20424;-80
2023/09/24 11:28:19;;;;;;;2.30;1.10;;;;;;;25.77;44.82;101580.69;6063769;23;20027;-80
2023/09/24 11:30:47;;;;;;;1.80;1.00;;;;;;;26.08;44.60;101633.56;6014457;23;20410;-79
2023/09/24 11:33:16;;;;;;;3.08;1.48;;;;;;;26.27;45.28;101631.84;6036412;23;20061;-79
2023/09/24 11:35:53;;;;;;;2.13;1.27;;;;;;;26.17;45.26;101640.47;6063906;23;20038;-80
2023/09/24 11:38:32;;;;;;;1.98;1.10;;;;;;;26.12;43.97;101615.78;6031148;23;20085;-79
2023/09/24 11:41:08;;;;;;;3.05;1.27;;;;;;;26.09;42.79;101604.47;6043464;23;20502;-81